Mendon, Utah
Current Conditions -  °F | °C
As of 1:51 AM on Wednesday 28 Jan 2015 (Local Time) from KLGU Reporting Station
Overcast Overcast  
Wind Chill: 38°   Ceiling: 4700
Heat Index: 38°   Visibility: 8mi
Dew Point: 36°   Wind: 3mph
Humidity: 93%   Direction: 50°NE
Pressure: 30.17"   Gusts: NA
Location:  41.71°N, 111.98°W
Report Text: KLGU 280851Z AUTO 05003KT 8SM OVC047 03/02 A3017 RMK AO2 RAB22E31 SLP217 P0000 60000 T00330022 50001
Loading
Personal Weather Stations






























Interactive Weather Map New forecast layout! Learn more

10-Day Weather Forecast

Advertisements
Track Severe Weather on mobile